createdAt,value
2022-12-27T00:02:25.437Z,95252.72
2022-12-27T00:04:54.256Z,95265.31
2022-12-27T00:07:22.396Z,95258.31
2022-12-27T00:09:50.488Z,95265.22
2022-12-27T00:12:18.617Z,95265.22
2022-12-27T00:14:48.104Z,95268.84
2022-12-27T00:17:16.265Z,95253.88
2022-12-27T00:19:44.273Z,95258.44
2022-12-27T00:22:12.369Z,95261.13
2022-12-27T00:24:40.793Z,95252.84
2022-12-27T00:27:12.089Z,95250.88
2022-12-27T00:29:40.196Z,95237.41
2022-12-27T00:32:09.748Z,95245.59
2022-12-27T00:34:37.917Z,95264.59
2022-12-27T00:37:06.077Z,95261.63
2022-12-27T00:39:34.172Z,95267.88
2022-12-27T00:42:02.277Z,95267.34
2022-12-27T00:44:30.492Z,95269.28
2022-12-27T00:46:58.691Z,95279.34
2022-12-27T00:49:28.244Z,95278.72
2022-12-27T00:51:56.293Z,95276.19
2022-12-27T00:54:24.537Z,95271.72
2022-12-27T00:56:52.618Z,95275.97
2022-12-27T00:59:20.811Z,95292.59
2022-12-27T01:01:49.320Z,95279.56
2022-12-27T01:04:17.564Z,95278.03
2022-12-27T01:06:50.245Z,95257.91
2022-12-27T01:09:18.502Z,95269.00
2022-12-27T01:11:46.458Z,95273.31
2022-12-27T01:14:15.486Z,95260.28
2022-12-27T01:16:47.951Z,95274.13
2022-12-27T01:19:16.609Z,95270.63
2022-12-27T01:21:45.001Z,95270.59
2022-12-27T01:24:14.599Z,95272.44
2022-12-27T01:26:42.986Z,95257.31
2022-12-27T01:29:13.393Z,95238.56
2022-12-27T01:31:41.808Z,95240.00
2022-12-27T01:34:10.396Z,95238.44
2022-12-27T01:36:38.513Z,95241.22
2022-12-27T01:39:08.457Z,95238.88
2022-12-27T01:41:58.295Z,95231.06
2022-12-27T01:45:07.343Z,95248.34
2022-12-27T01:47:47.755Z,95250.50
2022-12-27T01:50:23.012Z,95245.16
2022-12-27T01:52:57.152Z,95219.09
2022-12-27T01:55:30.661Z,95237.25
2022-12-27T01:58:04.850Z,95238.81
2022-12-27T02:00:33.318Z,95237.66
2022-12-27T02:03:03.392Z,95251.78
2022-12-27T02:05:32.012Z,95246.97
2022-12-27T02:08:09.975Z,95233.06
2022-12-27T02:10:38.792Z,95233.66
2022-12-27T02:13:08.604Z,95229.72
2022-12-27T02:15:37.050Z,95232.50
2022-12-27T02:18:05.528Z,95237.59
2022-12-27T02:20:59.990Z,95234.94
2022-12-27T02:24:14.447Z,95241.84
2022-12-27T02:27:03.784Z,95242.84
2022-12-27T02:29:53.870Z,95243.34
2022-12-27T02:32:29.965Z,95235.44
2022-12-27T02:35:06.952Z,95246.00
2022-12-27T02:37:40.375Z,95245.34
2022-12-27T02:40:29.223Z,95248.34
2022-12-27T02:43:15.327Z,95248.19
2022-12-27T02:46:09.288Z,95258.16
2022-12-27T02:48:54.950Z,95232.84
2022-12-27T02:51:56.808Z,95243.38
2022-12-27T02:54:43.251Z,95246.84
2022-12-27T02:57:22.294Z,95242.03
2022-12-27T03:00:30.498Z,95240.84
2022-12-27T03:03:29.350Z,95248.84
2022-12-27T03:06:41.919Z,95233.53
2022-12-27T03:09:58.340Z,95252.59
2022-12-27T03:12:53.164Z,95257.31
2022-12-27T03:15:51.772Z,95251.06
2022-12-27T03:18:31.415Z,95254.97
2022-12-27T03:21:18.563Z,95250.97
2022-12-27T03:24:06.750Z,95256.41
2022-12-27T03:26:37.207Z,95244.53
2022-12-27T03:29:25.029Z,95253.31
2022-12-27T03:32:13.941Z,95253.00
2022-12-27T03:34:51.487Z,95252.78
2022-12-27T03:37:39.839Z,95239.97
2022-12-27T03:40:16.134Z,95257.78
2022-12-27T03:43:08.238Z,95241.28
2022-12-27T03:46:05.835Z,95244.34
2022-12-27T03:48:40.597Z,95252.88
2022-12-27T03:51:10.596Z,95260.72
2022-12-27T03:53:42.361Z,95239.59
2022-12-27T03:56:11.287Z,95259.91
2022-12-27T03:58:39.402Z,95257.41
2022-12-27T04:01:07.658Z,95243.38
2022-12-27T04:03:35.702Z,95242.84
2022-12-27T04:06:03.897Z,95259.53
2022-12-27T04:08:51.084Z,95267.97
2022-12-27T04:11:36.192Z,95262.84
2022-12-27T04:14:22.004Z,95262.56
2022-12-27T04:17:07.563Z,95259.56
2022-12-27T04:19:52.594Z,95276.91
2022-12-27T04:22:37.757Z,95276.72
2022-12-27T04:25:25.320Z,95276.00
2022-12-27T04:28:10.549Z,95276.41
2022-12-27T04:30:55.731Z,95271.50
2022-12-27T04:33:41.157Z,95282.78
2022-12-27T04:36:10.252Z,95282.38
2022-12-27T04:38:38.303Z,95280.72
2022-12-27T04:41:25.447Z,95283.19
2022-12-27T04:44:10.712Z,95291.38
2022-12-27T04:46:55.932Z,95295.09
2022-12-27T04:49:43.378Z,95291.50
2022-12-27T04:52:34.095Z,95309.13
2022-12-27T04:55:11.110Z,95307.78
2022-12-27T04:57:40.551Z,95303.22
2022-12-27T05:00:27.317Z,95302.53
2022-12-27T05:02:55.935Z,95289.59
2022-12-27T05:05:25.454Z,95298.19
2022-12-27T05:08:11.620Z,95298.81
2022-12-27T05:10:57.246Z,95282.81
2022-12-27T05:13:43.921Z,95277.94
2022-12-27T05:16:12.014Z,95262.78
2022-12-27T05:18:40.094Z,95241.16
2022-12-27T05:21:08.717Z,95260.63
2022-12-27T05:23:56.769Z,95264.31
2022-12-27T05:26:28.819Z,95262.69
2022-12-27T05:28:59.871Z,95256.53
2022-12-27T05:31:30.266Z,95249.34
2022-12-27T05:33:58.697Z,95232.78
2022-12-27T05:36:27.217Z,95243.56
2022-12-27T05:38:55.353Z,95227.31
2022-12-27T05:41:23.644Z,95238.44
2022-12-27T05:43:51.957Z,95248.59
2022-12-27T05:46:23.254Z,95249.94
2022-12-27T05:48:51.537Z,95269.34
2022-12-27T05:51:21.962Z,95272.00
2022-12-27T05:53:50.174Z,95275.25
2022-12-27T05:56:20.351Z,95276.66
2022-12-27T05:58:48.680Z,95279.22
2022-12-27T06:01:18.657Z,95290.16
2022-12-27T06:03:49.014Z,95281.31
2022-12-27T06:06:16.952Z,95280.78
2022-12-27T06:08:44.957Z,95282.19
2022-12-27T06:11:15.360Z,95287.69
2022-12-27T06:13:49.632Z,95296.34
2022-12-27T06:16:17.702Z,95296.50
2022-12-27T06:18:47.566Z,95292.56
2022-12-27T06:21:17.894Z,95298.41
2022-12-27T06:23:46.824Z,95293.09
2022-12-27T06:26:16.357Z,95290.69
2022-12-27T06:28:44.339Z,95289.00
2022-12-27T06:31:12.664Z,95284.91
2022-12-27T06:33:40.657Z,95296.19
2022-12-27T06:36:12.502Z,95300.97
2022-12-27T06:38:40.684Z,95284.97
2022-12-27T06:41:11.524Z,95291.88
2022-12-27T06:43:40.118Z,95290.31
2022-12-27T06:46:16.727Z,95302.81
2022-12-27T06:48:45.671Z,95298.72
2022-12-27T06:51:17.276Z,95292.97
2022-12-27T06:53:45.294Z,95289.63
2022-12-27T06:56:16.668Z,95304.41
2022-12-27T06:58:45.272Z,95285.63
2022-12-27T07:01:15.580Z,95294.47
2022-12-27T07:03:44.092Z,95282.16
2022-12-27T07:06:13.040Z,95303.66
2022-12-27T07:08:42.722Z,95299.28
2022-12-27T07:11:12.561Z,95277.84
2022-12-27T07:13:42.759Z,95289.31
2022-12-27T07:16:12.311Z,95298.09
2022-12-27T07:18:40.560Z,95273.25
2022-12-27T07:21:10.473Z,95282.66
2022-12-27T07:23:39.174Z,95286.97
2022-12-27T07:26:11.269Z,95284.28
2022-12-27T07:28:40.056Z,95276.66
2022-12-27T07:31:09.437Z,95278.09
2022-12-27T07:33:38.271Z,95295.41
2022-12-27T07:36:08.781Z,95294.91
2022-12-27T07:38:36.955Z,95308.72
2022-12-27T07:41:05.852Z,95291.19
2022-12-27T07:43:37.128Z,95292.97
2022-12-27T07:46:06.283Z,95291.50
2022-12-27T07:48:34.684Z,95270.16
2022-12-27T07:51:02.924Z,95283.59
2022-12-27T07:53:31.460Z,95291.69
2022-12-27T07:55:59.879Z,95283.47
2022-12-27T07:58:28.230Z,95291.25
2022-12-27T08:00:58.041Z,95295.53
2022-12-27T08:03:26.251Z,95291.31
2022-12-27T08:05:54.340Z,95302.09
2022-12-27T08:08:26.373Z,95309.00
2022-12-27T08:10:54.520Z,95295.16
2022-12-27T08:13:22.480Z,95301.03
2022-12-27T08:15:54.036Z,95295.19
2022-12-27T08:18:23.957Z,95310.09
2022-12-27T08:20:52.529Z,95300.91
2022-12-27T08:23:21.172Z,95320.25
2022-12-27T08:25:49.499Z,95315.91
2022-12-27T08:28:19.493Z,95308.47
2022-12-27T08:30:48.815Z,95318.44
2022-12-27T08:33:17.305Z,95312.25
2022-12-27T08:35:55.010Z,95322.56
2022-12-27T08:38:23.745Z,95308.78
2022-12-27T08:40:52.069Z,95308.53
2022-12-27T08:43:20.161Z,95285.63
2022-12-27T08:45:48.636Z,95300.59
2022-12-27T08:48:18.199Z,95308.06
2022-12-27T08:50:47.839Z,95305.47
2022-12-27T08:53:16.041Z,95317.28
2022-12-27T08:55:44.102Z,95308.78
2022-12-27T08:58:16.395Z,95298.66
2022-12-27T09:00:45.019Z,95291.97
2022-12-27T09:03:13.145Z,95288.28
2022-12-27T09:05:42.162Z,95291.69
2022-12-27T09:08:12.147Z,95304.91
2022-12-27T09:10:40.528Z,95302.09
2022-12-27T09:13:08.665Z,95292.06
2022-12-27T09:15:38.374Z,95302.28
2022-12-27T09:18:07.568Z,95308.44
2022-12-27T09:20:36.008Z,95283.16
2022-12-27T09:23:04.185Z,95295.66
2022-12-27T09:25:33.653Z,95292.84
2022-12-27T09:28:02.148Z,95288.66
2022-12-27T09:30:30.279Z,95284.34
2022-12-27T09:32:59.540Z,95286.28
2022-12-27T09:35:27.620Z,95264.72
2022-12-27T09:37:55.861Z,95268.03
2022-12-27T09:40:24.006Z,95271.84
2022-12-27T09:43:12.632Z,95270.09
2022-12-27T09:45:48.340Z,95270.44
2022-12-27T09:48:33.404Z,95268.75
2022-12-27T09:51:07.687Z,95257.34
2022-12-27T09:53:45.073Z,95258.03
2022-12-27T09:56:15.727Z,95254.72
2022-12-27T09:58:50.848Z,95261.56
2022-12-27T10:01:23.548Z,95277.19
2022-12-27T10:03:53.055Z,95270.50
2022-12-27T10:06:45.444Z,95255.53
2022-12-27T10:09:30.678Z,95232.28
2022-12-27T10:12:05.809Z,95234.31
2022-12-27T10:14:53.161Z,95243.16
2022-12-27T10:17:34.145Z,95217.66
2022-12-27T10:20:11.806Z,95221.16
2022-12-27T10:22:47.196Z,95215.28
2022-12-27T10:25:19.555Z,95220.88
2022-12-27T10:27:48.734Z,95226.00
2022-12-27T10:30:20.293Z,95229.94
2022-12-27T10:32:49.088Z,95225.59
2022-12-27T10:35:20.520Z,95231.91
2022-12-27T10:37:50.156Z,95233.69
2022-12-27T10:40:24.213Z,95233.84
2022-12-27T10:43:04.792Z,95228.03
2022-12-27T10:45:39.852Z,95215.72
2022-12-27T10:48:21.271Z,95209.13
2022-12-27T10:50:54.646Z,95211.72
2022-12-27T10:53:38.202Z,95220.56
2022-12-27T10:56:13.334Z,95218.50
2022-12-27T10:58:44.059Z,95218.25
2022-12-27T11:01:21.941Z,95211.53
2022-12-27T11:03:50.295Z,95201.25
2022-12-27T11:06:23.330Z,95195.50
2022-12-27T11:08:52.467Z,95196.94
2022-12-27T11:11:22.968Z,95208.13
2022-12-27T11:13:52.779Z,95201.34
2022-12-27T11:16:43.138Z,95203.44
2022-12-27T11:19:25.814Z,95182.47
2022-12-27T11:21:59.124Z,95191.94
2022-12-27T11:24:28.634Z,95195.81
2022-12-27T11:27:00.429Z,95176.16
2022-12-27T11:29:33.218Z,95181.19
2022-12-27T11:32:18.495Z,95178.69
2022-12-27T11:34:49.122Z,95181.38
2022-12-27T11:37:19.379Z,95188.69
2022-12-27T11:39:49.384Z,95182.16
2022-12-27T11:42:23.908Z,95195.56
2022-12-27T11:45:01.040Z,95189.09
2022-12-27T11:47:39.163Z,95186.47
2022-12-27T11:50:31.382Z,95197.75
2022-12-27T11:53:14.364Z,95201.38
2022-12-27T11:56:04.251Z,95196.09
2022-12-27T11:59:08.393Z,95194.81
2022-12-27T12:01:55.101Z,95191.59
2022-12-27T12:05:07.360Z,95196.25
2022-12-27T12:08:02.118Z,95202.38
2022-12-27T12:10:39.723Z,95201.72
2022-12-27T12:13:29.005Z,95204.97
2022-12-27T12:16:16.907Z,95192.75
2022-12-27T12:19:23.291Z,95182.84
2022-12-27T12:22:04.970Z,95194.19
2022-12-27T12:25:07.632Z,95188.13
2022-12-27T12:27:50.167Z,95171.00
2022-12-27T12:30:42.642Z,95191.19
2022-12-27T12:33:30.657Z,95187.16
2022-12-27T12:36:24.756Z,95211.13
2022-12-27T12:39:00.317Z,95208.44
2022-12-27T12:42:00.677Z,95195.94
2022-12-27T12:44:55.396Z,95212.31
2022-12-27T12:47:45.018Z,95213.94
2022-12-27T12:50:29.699Z,95197.00
2022-12-27T12:53:24.285Z,95207.69
2022-12-27T12:56:03.487Z,95221.78
2022-12-27T12:58:50.180Z,95216.69
2022-12-27T13:01:40.206Z,95211.72
2022-12-27T13:04:24.805Z,95217.09
2022-12-27T13:07:14.961Z,95233.31
2022-12-27T13:10:03.386Z,95221.09
2022-12-27T13:12:41.440Z,95233.31
2022-12-27T13:15:30.722Z,95238.66
2022-12-27T13:18:12.556Z,95231.22
2022-12-27T13:20:57.691Z,95246.13
2022-12-27T13:23:42.105Z,95246.28
2022-12-27T13:26:20.315Z,95234.13
2022-12-27T13:29:02.171Z,95246.88
2022-12-27T13:31:46.364Z,95267.06
2022-12-27T13:34:34.065Z,95259.94
2022-12-27T13:37:17.499Z,95275.59
2022-12-27T13:40:02.497Z,95286.66
2022-12-27T13:43:09.783Z,95284.44
2022-12-27T13:45:50.217Z,95298.72
2022-12-27T13:48:44.467Z,95287.00
2022-12-27T13:51:36.411Z,95279.03
2022-12-27T13:54:24.600Z,95288.94
2022-12-27T13:56:59.152Z,95280.00
2022-12-27T13:59:46.056Z,95297.09
2022-12-27T14:02:39.873Z,95289.94
2022-12-27T14:05:32.204Z,95293.03
2022-12-27T14:08:13.928Z,95298.09
2022-12-27T14:10:47.172Z,95295.13
2022-12-27T14:13:27.946Z,95287.78
2022-12-27T14:16:24.328Z,95291.53
2022-12-27T14:19:13.501Z,95290.22
2022-12-27T14:22:00.375Z,95296.41
2022-12-27T14:24:57.081Z,95301.31
2022-12-27T14:27:59.562Z,95290.34
2022-12-27T14:30:52.345Z,95301.91
2022-12-27T14:33:52.578Z,95309.03
2022-12-27T14:36:49.034Z,95309.66
2022-12-27T14:40:04.551Z,95313.72
2022-12-27T14:43:12.799Z,95319.38
2022-12-27T14:46:18.863Z,95313.09
2022-12-27T14:49:35.362Z,95307.53
2022-12-27T14:52:43.007Z,95313.03
2022-12-27T14:55:40.562Z,95320.94
2022-12-27T14:58:30.536Z,95313.97
2022-12-27T15:01:07.634Z,95324.66
2022-12-27T15:04:03.276Z,95329.84
2022-12-27T15:06:46.138Z,95329.38
2022-12-27T15:09:27.076Z,95337.63
2022-12-27T15:12:04.894Z,95320.09
2022-12-27T15:14:56.419Z,95309.69
2022-12-27T15:17:40.224Z,95323.94
2022-12-27T15:20:45.991Z,95321.34
2022-12-27T15:23:25.774Z,95325.28
2022-12-27T15:26:04.391Z,95336.78
2022-12-27T15:28:49.502Z,95332.97
2022-12-27T15:31:31.051Z,95337.66
2022-12-27T15:34:15.942Z,95352.63
2022-12-27T15:36:47.339Z,95352.94
2022-12-27T15:40:05.402Z,95358.03
2022-12-27T15:42:48.937Z,95350.78
2022-12-27T15:45:39.463Z,95354.47
2022-12-27T15:48:54.910Z,95358.44
2022-12-27T15:51:32.260Z,95350.38
2022-12-27T15:54:32.615Z,95352.50
2022-12-27T15:57:21.461Z,95355.25
2022-12-27T15:59:52.991Z,95353.91
2022-12-27T16:02:28.868Z,95329.38
2022-12-27T16:05:02.477Z,95347.84
2022-12-27T16:07:51.652Z,95344.44
2022-12-27T16:10:50.106Z,95357.06
2022-12-27T16:13:51.513Z,95357.75
2022-12-27T16:16:54.697Z,95364.13
2022-12-27T16:19:41.091Z,95357.13
2022-12-27T16:22:26.366Z,95360.63
2022-12-27T16:24:54.843Z,95347.13
2022-12-27T16:27:31.472Z,95358.28
2022-12-27T16:30:00.351Z,95361.84
2022-12-27T16:32:30.016Z,95371.25
2022-12-27T16:35:15.039Z,95370.53
2022-12-27T16:37:52.542Z,95355.53
2022-12-27T16:40:46.189Z,95358.94
2022-12-27T16:43:46.624Z,95378.69
2022-12-27T16:46:30.122Z,95370.44
2022-12-27T16:49:24.977Z,95381.66
2022-12-27T16:52:04.525Z,95380.38
2022-12-27T16:54:47.381Z,95381.31
2022-12-27T16:57:41.198Z,95383.97
2022-12-27T17:00:40.333Z,95383.06
2022-12-27T17:03:47.392Z,95387.88
2022-12-27T17:06:57.809Z,95387.59
2022-12-27T17:09:43.132Z,95387.63
2022-12-27T17:12:24.628Z,95397.06
2022-12-27T17:15:05.620Z,95409.72
2022-12-27T17:17:34.095Z,95402.66
2022-12-27T17:20:06.628Z,95403.34
2022-12-27T17:22:35.813Z,95411.69
2022-12-27T17:25:06.370Z,95394.81
2022-12-27T17:27:56.740Z,95408.28
2022-12-27T17:30:27.839Z,95402.84
2022-12-27T17:33:25.502Z,95399.72
2022-12-27T17:36:09.095Z,95412.97
2022-12-27T17:38:48.560Z,95417.63
2022-12-27T17:41:44.343Z,95419.28
2022-12-27T17:44:41.876Z,95406.75
2022-12-27T17:47:31.413Z,95413.19
2022-12-27T17:50:01.411Z,95415.91
2022-12-27T17:52:47.184Z,95402.97
2022-12-27T17:55:38.985Z,95401.22
2022-12-27T17:58:11.789Z,95393.72
2022-12-27T18:00:46.738Z,95398.09
2022-12-27T18:03:15.803Z,95398.66
2022-12-27T18:05:47.578Z,95390.47
2022-12-27T18:08:23.717Z,95406.97
2022-12-27T18:10:52.047Z,95400.69
2022-12-27T18:13:25.925Z,95404.75
2022-12-27T18:15:54.672Z,95410.59
2022-12-27T18:18:27.872Z,95402.97
2022-12-27T18:20:58.275Z,95406.50
2022-12-27T18:23:27.360Z,95409.78
2022-12-27T18:25:58.454Z,95427.38
2022-12-27T18:28:33.428Z,95424.00
2022-12-27T18:31:06.429Z,95418.25
2022-12-27T18:33:38.695Z,95432.97
2022-12-27T18:36:10.159Z,95413.66
2022-12-27T18:38:42.666Z,95421.41
2022-12-27T18:41:13.549Z,95434.13
2022-12-27T18:43:46.485Z,95433.56
2022-12-27T18:46:18.051Z,95426.47
2022-12-27T18:48:46.222Z,95433.00
2022-12-27T18:51:14.615Z,95432.19
2022-12-27T18:53:45.788Z,95424.69
2022-12-27T18:56:29.306Z,95430.94
2022-12-27T18:59:04.499Z,95425.66
2022-12-27T19:01:41.738Z,95423.31
2022-12-27T19:04:28.850Z,95427.84
2022-12-27T19:07:06.470Z,95427.31
2022-12-27T19:09:38.871Z,95427.81
2022-12-27T19:12:10.724Z,95429.72
2022-12-27T19:14:44.643Z,95438.59
2022-12-27T19:17:19.887Z,95442.41
2022-12-27T19:19:50.711Z,95441.59
2022-12-27T19:22:42.427Z,95451.53
2022-12-27T19:25:23.723Z,95467.66
2022-12-27T19:28:03.194Z,95471.19
2022-12-27T19:30:39.428Z,95477.59
2022-12-27T19:33:13.359Z,95478.25
2022-12-27T19:35:42.258Z,95484.84
2022-12-27T19:38:19.624Z,95490.25
2022-12-27T19:40:56.648Z,95499.25
2022-12-27T19:43:29.717Z,95506.16
2022-12-27T19:45:59.180Z,95501.53
2022-12-27T19:48:27.194Z,95502.78
2022-12-27T19:50:56.072Z,95497.31
2022-12-27T19:53:29.511Z,95500.16
2022-12-27T19:55:58.147Z,95498.50
2022-12-27T19:58:28.424Z,95493.59
2022-12-27T20:00:58.377Z,95494.66
2022-12-27T20:03:26.872Z,95495.75
2022-12-27T20:06:13.723Z,95499.00
2022-12-27T20:08:45.980Z,95495.97
2022-12-27T20:11:16.380Z,95506.47
2022-12-27T20:13:44.670Z,95498.19
2022-12-27T20:16:15.775Z,95508.13
2022-12-27T20:18:44.752Z,95510.44
2022-12-27T20:21:13.631Z,95488.59
2022-12-27T20:23:42.142Z,95487.09
2022-12-27T20:26:10.657Z,95491.19
2022-12-27T20:28:39.875Z,95491.19
2022-12-27T20:31:09.160Z,95502.25
2022-12-27T20:33:38.804Z,95509.75
2022-12-27T20:36:07.926Z,95513.16
2022-12-27T20:38:36.668Z,95510.44
2022-12-27T20:41:08.937Z,95509.19
2022-12-27T20:43:37.419Z,95520.63
2022-12-27T20:46:07.133Z,95518.69
2022-12-27T20:48:39.706Z,95507.50
2022-12-27T20:51:09.373Z,95513.81
2022-12-27T20:53:37.591Z,95527.81
2022-12-27T20:56:07.434Z,95526.88
2022-12-27T20:58:35.930Z,95533.50
2022-12-27T21:01:08.991Z,95533.00
2022-12-27T21:03:37.938Z,95538.25
2022-12-27T21:06:10.332Z,95533.00
2022-12-27T21:08:45.403Z,95527.34
2022-12-27T21:11:18.893Z,95543.34
2022-12-27T21:13:48.167Z,95540.09
2022-12-27T21:16:20.030Z,95542.50
2022-12-27T21:18:48.419Z,95543.56
2022-12-27T21:21:20.763Z,95546.28
2022-12-27T21:23:49.900Z,95529.06
2022-12-27T21:26:21.441Z,95545.22
2022-12-27T21:28:49.820Z,95539.84
2022-12-27T21:31:19.101Z,95543.50
2022-12-27T21:33:47.939Z,95556.31
2022-12-27T21:36:19.060Z,95561.34
2022-12-27T21:38:48.306Z,95555.75
2022-12-27T21:41:18.579Z,95537.94
2022-12-27T21:43:47.483Z,95557.63
2022-12-27T21:46:17.755Z,95561.91
2022-12-27T21:48:46.159Z,95569.78
2022-12-27T21:51:16.308Z,95563.59
2022-12-27T21:53:46.227Z,95570.56
2022-12-27T21:56:16.619Z,95564.22
2022-12-27T21:58:46.010Z,95564.81
2022-12-27T22:01:16.380Z,95562.91
2022-12-27T22:03:46.873Z,95549.31
2022-12-27T22:06:18.806Z,95555.34
2022-12-27T22:08:49.816Z,95560.53
2022-12-27T22:11:19.278Z,95546.41
2022-12-27T22:13:47.601Z,95541.44
2022-12-27T22:16:17.593Z,95552.44
2022-12-27T22:18:46.436Z,95544.19
2022-12-27T22:21:16.658Z,95551.69
2022-12-27T22:23:48.307Z,95560.84
2022-12-27T22:26:17.994Z,95550.50
2022-12-27T22:28:46.398Z,95561.78
2022-12-27T22:31:16.881Z,95549.81
2022-12-27T22:33:45.064Z,95560.66
2022-12-27T22:36:15.591Z,95552.09
2022-12-27T22:38:47.689Z,95549.94
2022-12-27T22:41:21.032Z,95549.38
2022-12-27T22:43:54.126Z,95548.44
2022-12-27T22:46:22.401Z,95545.44
2022-12-27T22:48:51.947Z,95539.09
2022-12-27T22:51:21.897Z,95545.53
2022-12-27T22:53:50.383Z,95541.97
2022-12-27T22:56:21.858Z,95542.84
2022-12-27T22:58:50.092Z,95539.72
2022-12-27T23:01:21.277Z,95533.84
2022-12-27T23:03:49.726Z,95527.47
2022-12-27T23:06:18.585Z,95527.97
2022-12-27T23:08:47.422Z,95538.97
2022-12-27T23:11:17.746Z,95532.72
2022-12-27T23:13:47.832Z,95520.28
2022-12-27T23:16:16.596Z,95537.38
2022-12-27T23:18:44.903Z,95534.50
2022-12-27T23:21:21.294Z,95531.78
2022-12-27T23:23:53.039Z,95534.22
2022-12-27T23:26:23.077Z,95538.44
2022-12-27T23:28:53.607Z,95534.34
2022-12-27T23:31:23.016Z,95522.44
2022-12-27T23:33:51.516Z,95522.44
2022-12-27T23:36:19.920Z,95523.97
2022-12-27T23:38:48.017Z,95524.66
2022-12-27T23:41:18.276Z,95532.41
2022-12-27T23:43:55.388Z,95529.44
2022-12-27T23:46:27.669Z,95525.09
2022-12-27T23:48:56.680Z,95522.50
2022-12-27T23:51:25.326Z,95520.22
2022-12-27T23:53:53.350Z,95501.31
2022-12-27T23:56:23.200Z,95520.22
2022-12-27T23:58:53.691Z,95510.66
